Time;durP1;ratioP1;P1;durP2;ratioP2;P2;SDS_P1;SDS_P2;PMS_P1;PMS_P2;Temp;Humidity;BMP_temperature;BMP_pressure;BME280_temperature;BME280_humidity;BME280_pressure;Samples;Min_cycle;Max_cycle;Signal;HPM_P1;HPM_P2
2023/03/10 00:00:12;;;;;;;5.10;1.60;;;9.80;99.90;;;;;;5035964;28;20041;-60
2023/03/10 00:02:45;;;;;;;5.35;1.40;;;9.80;99.90;;;;;;5034696;28;20420;-61
2023/03/10 00:05:12;;;;;;;3.60;1.20;;;9.80;99.90;;;;;;5035787;28;20041;-61
2023/03/10 00:07:38;;;;;;;2.63;1.08;;;9.80;99.90;;;;;;5036104;28;20435;-62
2023/03/10 00:10:05;;;;;;;5.47;1.77;;;9.80;99.90;;;;;;5035452;28;20117;-60
2023/03/10 00:12:32;;;;;;;4.90;1.25;;;9.80;99.90;;;;;;5035822;28;20041;-60
2023/03/10 00:14:59;;;;;;;5.18;1.30;;;9.80;99.90;;;;;;5034470;28;20046;-60
2023/03/10 00:17:25;;;;;;;3.60;1.20;;;9.80;99.90;;;;;;5035287;28;20443;-61
2023/03/10 00:19:52;;;;;;;4.32;1.15;;;9.80;99.90;;;;;;5035533;28;20037;-61
2023/03/10 00:22:19;;;;;;;6.13;1.50;;;9.80;99.90;;;;;;5035815;28;20049;-61
2023/03/10 00:24:46;;;;;;;5.25;1.55;;;9.80;99.90;;;;;;5035305;28;20084;-61
2023/03/10 00:27:12;;;;;;;4.47;1.30;;;9.80;99.90;;;;;;5035387;28;20465;-61
2023/03/10 00:29:39;;;;;;;5.53;1.60;;;9.80;99.90;;;;;;5035590;28;20037;-61
2023/03/10 00:32:06;;;;;;;4.95;1.40;;;9.80;99.90;;;;;;5035263;28;20047;-61
2023/03/10 00:34:34;;;;;;;5.43;1.30;;;9.80;99.90;;;;;;5035355;28;20061;-61
2023/03/10 00:37:01;;;;;;;5.40;1.35;;;9.80;99.90;;;;;;5035563;28;20408;-61
2023/03/10 00:39:27;;;;;;;3.78;0.98;;;9.70;99.90;;;;;;5035090;28;20056;-61
2023/03/10 00:41:54;;;;;;;2.60;0.93;;;9.80;99.90;;;;;;5035626;28;20045;-61
2023/03/10 00:44:22;;;;;;;4.38;1.30;;;9.80;99.90;;;;;;5035029;28;20072;-61
2023/03/10 00:46:49;;;;;;;6.05;1.20;;;9.70;99.90;;;;;;5034999;28;20050;-61
2023/03/10 00:49:16;;;;;;;5.05;1.20;;;9.70;99.90;;;;;;5034812;28;20484;-61
2023/03/10 00:51:43;;;;;;;2.20;0.80;;;9.70;99.90;;;;;;5034732;28;20050;-61
2023/03/10 00:54:10;;;;;;;2.85;0.80;;;9.70;99.90;;;;;;5033480;28;20050;-62
2023/03/10 00:56:36;;;;;;;3.25;0.93;;;9.70;99.90;;;;;;5033733;28;20370;-61
2023/03/10 00:59:03;;;;;;;3.33;0.98;;;9.70;99.90;;;;;;5033648;28;20046;-60
2023/03/10 01:01:31;;;;;;;2.83;1.00;;;9.70;99.90;;;;;;5034597;28;20051;-61
2023/03/10 01:03:58;;;;;;;4.28;1.10;;;9.70;99.90;;;;;;5033591;28;20171;-61
2023/03/10 01:06:25;;;;;;;3.50;0.80;;;9.70;99.90;;;;;;5034617;28;20045;-60
2023/03/10 01:08:51;;;;;;;5.63;0.98;;;9.70;99.90;;;;;;5033229;28;20053;-59
2023/03/10 01:11:18;;;;;;;4.97;1.10;;;9.70;99.90;;;;;;5032921;28;20056;-60
2023/03/10 01:13:45;;;;;;;6.95;1.33;;;9.70;99.90;;;;;;5034434;28;20033;-59
2023/03/10 01:16:12;;;;;;;5.90;1.40;;;9.70;99.90;;;;;;5034559;28;20072;-60
2023/03/10 01:18:39;;;;;;;6.18;1.30;;;9.60;99.90;;;;;;5034187;28;20061;-60
2023/03/10 01:21:06;;;;;;;6.93;1.42;;;9.70;99.90;;;;;;5033188;28;20050;-59
2023/03/10 01:23:32;;;;;;;6.22;1.65;;;9.60;99.90;;;;;;5039932;28;20045;-60
2023/03/10 01:25:59;;;;;;;6.07;1.25;;;9.60;99.90;;;;;;5037518;28;20044;-60
2023/03/10 01:28:27;;;;;;;4.75;1.08;;;9.60;99.90;;;;;;5033142;28;20080;-59
2023/03/10 01:30:54;;;;;;;4.22;0.98;;;9.60;99.90;;;;;;5048891;28;20049;-59
2023/03/10 01:33:21;;;;;;;3.25;0.90;;;9.50;99.90;;;;;;5054151;28;20438;-61
2023/03/10 01:35:48;;;;;;;2.80;0.80;;;9.50;99.90;;;;;;5053258;28;20431;-61
2023/03/10 01:38:16;;;;;;;2.42;0.50;;;9.50;99.90;;;;;;5054070;28;20123;-61
2023/03/10 01:40:42;;;;;;;4.05;0.80;;;9.50;99.90;;;;;;5052155;28;20048;-61
2023/03/10 01:43:09;;;;;;;3.53;1.00;;;9.50;99.90;;;;;;5052515;28;20080;-61
2023/03/10 01:45:36;;;;;;;1.63;0.60;;;9.50;99.90;;;;;;5053834;28;20041;-62
2023/03/10 01:48:02;;;;;;;3.75;1.00;;;9.50;99.90;;;;;;5052929;28;20044;-62
2023/03/10 01:50:29;;;;;;;7.10;1.08;;;9.50;99.90;;;;;;5052600;28;20109;-59
2023/03/10 01:52:57;;;;;;;3.60;0.82;;;9.50;99.90;;;;;;5053475;28;20044;-59
2023/03/10 01:55:24;;;;;;;5.03;0.82;;;9.50;99.90;;;;;;5052928;28;20536;-59
2023/03/10 01:57:51;;;;;;;3.65;0.95;;;9.50;99.90;;;;;;5052543;28;20091;-60
2023/03/10 02:00:18;;;;;;;6.75;1.02;;;9.50;99.90;;;;;;5051952;28;20496;-60
2023/03/10 02:02:45;;;;;;;5.57;1.02;;;9.50;99.90;;;;;;5052365;28;20041;-60
2023/03/10 02:05:11;;;;;;;3.50;1.40;;;9.50;99.90;;;;;;5053469;28;20526;-60
2023/03/10 02:07:38;;;;;;;2.58;0.98;;;9.50;99.90;;;;;;5053905;28;20491;-60
2023/03/10 02:10:07;;;;;;;3.60;1.00;;;9.50;99.90;;;;;;5053654;28;20048;-60
2023/03/10 02:12:34;;;;;;;2.67;0.80;;;9.50;99.90;;;;;;5052158;28;20037;-60
2023/03/10 02:15:01;;;;;;;3.40;0.98;;;9.50;99.90;;;;;;5052048;28;20049;-60
2023/03/10 02:17:28;;;;;;;3.13;0.88;;;9.50;99.90;;;;;;5051712;28;20060;-61
2023/03/10 02:19:55;;;;;;;3.33;1.00;;;9.60;99.90;;;;;;5052334;28;20349;-60
2023/03/10 02:22:22;;;;;;;3.25;1.05;;;9.60;99.90;;;;;;5053394;28;20041;-60
2023/03/10 02:24:48;;;;;;;4.93;0.90;;;9.50;99.90;;;;;;5053329;28;20357;-60
2023/03/10 02:27:17;;;;;;;3.50;1.05;;;9.60;99.90;;;;;;5051684;28;20504;-61
2023/03/10 02:29:43;;;;;;;6.18;1.40;;;9.50;99.90;;;;;;5052108;28;20048;-60
2023/03/10 02:32:25;;;;;;;2.92;0.77;;;9.50;99.90;;;;;;5051945;28;20126;-60
2023/03/10 02:34:52;;;;;;;3.53;0.90;;;9.50;99.90;;;;;;5053491;28;20468;-60
2023/03/10 02:37:18;;;;;;;3.42;1.05;;;9.60;99.90;;;;;;5051670;28;20048;-61
2023/03/10 02:39:45;;;;;;;3.03;1.33;;;9.50;99.90;;;;;;5052273;28;20043;-60
2023/03/10 02:42:12;;;;;;;4.18;1.10;;;9.50;99.90;;;;;;5053407;28;20049;-61
2023/03/10 02:44:39;;;;;;;3.45;1.30;;;9.50;99.90;;;;;;5051880;28;20352;-61
2023/03/10 02:47:06;;;;;;;3.53;0.93;;;9.50;99.90;;;;;;5052281;28;20053;-60
2023/03/10 02:49:32;;;;;;;4.65;1.73;;;9.50;99.90;;;;;;5052000;28;20041;-60
2023/03/10 02:51:59;;;;;;;3.50;0.95;;;9.50;99.90;;;;;;5052118;28;20512;-60
2023/03/10 02:54:26;;;;;;;6.53;1.20;;;9.50;99.90;;;;;;5053348;28;20052;-61
2023/03/10 02:56:53;;;;;;;2.67;0.90;;;9.50;99.90;;;;;;5052349;28;20091;-60
2023/03/10 02:59:20;;;;;;;3.47;1.02;;;9.40;99.90;;;;;;5051745;28;20431;-60
2023/03/10 03:01:50;;;;;;;5.88;1.20;;;9.40;99.90;;;;;;5051729;28;20103;-60
2023/03/10 03:04:18;;;;;;;4.45;1.20;;;9.50;99.90;;;;;;5051767;28;20055;-60
2023/03/10 03:06:45;;;;;;;1.67;0.93;;;9.50;99.90;;;;;;5053037;28;20072;-60
2023/03/10 03:09:13;;;;;;;3.38;1.15;;;9.50;99.90;;;;;;5051864;28;20048;-60
2023/03/10 03:11:40;;;;;;;2.38;1.13;;;9.50;99.90;;;;;;5051516;28;20069;-61
2023/03/10 03:14:08;;;;;;;3.35;0.95;;;9.50;99.90;;;;;;5053910;28;20072;-60
2023/03/10 03:16:36;;;;;;;4.00;1.17;;;9.50;99.90;;;;;;5055808;28;20045;-60
2023/03/10 03:19:06;;;;;;;2.25;0.82;;;9.50;99.90;;;;;;5055435;28;20053;-57
2023/03/10 03:21:32;;;;;;;2.53;0.88;;;9.60;99.90;;;;;;5056861;28;20499;-60
2023/03/10 03:23:59;;;;;;;5.90;1.00;;;9.60;99.90;;;;;;5056359;28;20445;-60
2023/03/10 03:26:26;;;;;;;3.40;0.90;;;9.60;99.90;;;;;;5056413;28;20544;-60
2023/03/10 03:29:11;;;;;;;3.65;1.02;;;9.60;99.90;;;;;;5055296;28;20051;-60
2023/03/10 03:31:39;;;;;;;3.38;0.77;;;9.60;99.90;;;;;;5055428;28;20052;-61
2023/03/10 03:34:11;;;;;;;2.58;0.90;;;9.60;99.90;;;;;;5055043;28;20041;-59
2023/03/10 03:36:38;;;;;;;1.90;0.75;;;9.60;99.90;;;;;;5056152;28;20391;-60
2023/03/10 03:39:07;;;;;;;3.63;1.08;;;9.60;99.90;;;;;;5055389;28;20380;-60
2023/03/10 03:41:36;;;;;;;3.28;1.00;;;9.60;99.90;;;;;;5054986;28;20095;-60
2023/03/10 03:44:03;;;;;;;5.30;1.30;;;9.60;99.90;;;;;;5055979;28;20037;-60
2023/03/10 03:46:32;;;;;;;4.90;1.10;;;9.60;99.90;;;;;;5056119;28;20451;-60
2023/03/10 03:49:00;;;;;;;2.40;1.00;;;9.60;99.90;;;;;;5056319;28;20075;-61
2023/03/10 03:51:28;;;;;;;3.95;1.25;;;9.60;99.90;;;;;;5054941;28;20103;-60
2023/03/10 03:53:56;;;;;;;4.07;1.50;;;9.60;99.90;;;;;;5054803;28;20107;-60
2023/03/10 03:56:23;;;;;;;3.33;1.50;;;9.60;99.90;;;;;;5054574;28;20053;-60
2023/03/10 03:58:50;;;;;;;5.25;1.77;;;9.60;99.90;;;;;;5055909;28;20048;-60
2023/03/10 04:01:17;;;;;;;5.00;1.60;;;9.60;99.90;;;;;;5054746;28;20131;-60
2023/03/10 04:03:49;;;;;;;7.10;2.05;;;9.60;99.90;;;;;;5054644;28;20052;-59
2023/03/10 04:06:16;;;;;;;6.43;2.00;;;9.60;99.90;;;;;;5054446;28;20488;-60
2023/03/10 04:08:44;;;;;;;5.53;2.08;;;9.60;99.90;;;;;;5054445;28;20072;-60
2023/03/10 04:11:12;;;;;;;7.43;1.88;;;9.60;99.90;;;;;;5054412;28;20179;-58
2023/03/10 04:13:44;;;;;;;7.97;2.00;;;9.70;99.90;;;;;;5054211;28;20496;-60
2023/03/10 04:16:12;;;;;;;4.10;2.03;;;9.60;99.90;;;;;;5054435;28;20373;-61
2023/03/10 04:18:41;;;;;;;6.75;2.15;;;9.70;99.90;;;;;;5054212;28;20118;-61
2023/03/10 04:21:10;;;;;;;6.38;2.10;;;9.70;99.90;;;;;;5054428;28;20045;-59
2023/03/10 04:23:40;;;;;;;4.60;2.28;;;9.60;99.90;;;;;;5053890;28;20048;-61
2023/03/10 04:26:09;;;;;;;7.30;2.45;;;9.60;99.90;;;;;;5054393;28;20073;-60
2023/03/10 04:28:38;;;;;;;10.35;2.95;;;9.60;99.90;;;;;;5054037;28;20156;-60
2023/03/10 04:31:05;;;;;;;7.47;2.85;;;9.60;99.90;;;;;;5052938;28;20048;-60
2023/03/10 04:33:32;;;;;;;7.78;3.10;;;9.60;99.90;;;;;;5036479;28;20059;-61
2023/03/10 04:35:59;;;;;;;8.80;3.38;;;9.60;99.90;;;;;;5053384;28;20052;-61
2023/03/10 04:38:26;;;;;;;10.27;3.70;;;9.50;99.90;;;;;;5053078;28;20062;-60
2023/03/10 04:40:52;;;;;;;11.50;3.67;;;9.60;99.90;;;;;;5053366;28;20049;-60
2023/03/10 04:43:20;;;;;;;10.27;3.92;;;9.50;99.90;;;;;;5036435;28;20095;-60
2023/03/10 04:45:47;;;;;;;11.32;3.40;;;9.50;99.90;;;;;;5052859;28;20075;-61
2023/03/10 04:48:14;;;;;;;14.60;3.75;;;9.60;99.90;;;;;;5020057;28;20051;-60
2023/03/10 04:50:41;;;;;;;11.57;3.70;;;9.50;99.90;;;;;;5053112;28;20045;-61
2023/03/10 04:53:10;;;;;;;12.90;3.80;;;9.50;99.90;;;;;;5036100;28;20566;-60
2023/03/10 04:55:37;;;;;;;11.68;3.70;;;9.50;99.90;;;;;;5052687;28;20045;-60
2023/03/10 04:58:04;;;;;;;9.30;4.03;;;9.50;99.90;;;;;;5035587;28;20136;-61
2023/03/10 05:00:31;;;;;;;11.32;4.28;;;9.50;99.90;;;;;;5035767;28;20488;-60
2023/03/10 05:02:59;;;;;;;12.50;3.85;;;9.50;99.90;;;;;;5052433;28;20074;-60
2023/03/10 05:05:26;;;;;;;12.50;4.82;;;9.50;99.90;;;;;;5035915;28;20142;-60
2023/03/10 05:07:52;;;;;;;13.45;8.93;;;9.50;99.90;;;;;;5036954;28;20048;-61
2023/03/10 05:10:19;;;;;;;14.23;11.82;;;9.30;99.90;;;;;;5054840;28;20488;-60
2023/03/10 05:12:46;;;;;;;13.88;11.65;;;9.00;99.90;;;;;;5053208;28;20052;-60
2023/03/10 05:15:13;;;;;;;13.45;11.70;;;8.80;99.90;;;;;;5053366;28;20064;-60
2023/03/10 05:17:40;;;;;;;13.48;11.30;;;8.60;99.90;;;;;;5053230;28;20514;-60
2023/03/10 05:20:10;;;;;;;13.98;10.68;;;8.50;99.90;;;;;;5052983;28;20451;-60
2023/03/10 05:22:37;;;;;;;12.05;10.30;;;8.30;99.90;;;;;;5054517;28;20037;-61
2023/03/10 05:25:06;;;;;;;13.00;10.63;;;8.20;99.90;;;;;;5053189;28;20049;-61
2023/03/10 05:27:33;;;;;;;15.20;11.35;;;8.00;99.90;;;;;;5053421;28;20427;-60
2023/03/10 05:30:00;;;;;;;12.88;9.98;;;7.90;99.90;;;;;;5052986;28;20136;-61
2023/03/10 05:32:27;;;;;;;10.13;8.85;;;7.80;99.90;;;;;;5053544;28;20045;-61
2023/03/10 05:34:54;;;;;;;9.90;8.90;;;7.70;99.90;;;;;;5052479;28;20066;-61
2023/03/10 05:37:21;;;;;;;9.73;8.27;;;7.60;99.90;;;;;;5052391;28;20128;-60
2023/03/10 05:39:48;;;;;;;12.70;8.23;;;7.60;99.90;;;;;;5052979;28;20107;-59
2023/03/10 05:42:18;;;;;;;9.48;7.22;;;7.60;99.90;;;;;;5052511;28;20048;-59
2023/03/10 05:44:45;;;;;;;7.63;6.82;;;7.50;99.90;;;;;;5052720;28;20049;-59
2023/03/10 05:47:13;;;;;;;7.85;6.88;;;7.40;99.90;;;;;;5052255;28;20052;-59
2023/03/10 05:49:41;;;;;;;8.45;6.80;;;7.30;99.90;;;;;;5052473;28;20095;-60
2023/03/10 05:52:07;;;;;;;9.80;7.38;;;7.20;99.90;;;;;;5054248;28;20476;-60
2023/03/10 05:54:36;;;;;;;8.13;6.85;;;7.20;99.90;;;;;;5051874;28;20127;-60
2023/03/10 05:57:04;;;;;;;8.20;6.80;;;7.20;99.90;;;;;;5052069;28;20037;-60
2023/03/10 05:59:31;;;;;;;8.15;6.03;;;7.20;99.90;;;;;;5052182;28;20128;-61
2023/03/10 06:01:58;;;;;;;8.38;6.15;;;7.10;99.90;;;;;;5052442;28;20073;-59
2023/03/10 06:04:27;;;;;;;7.57;5.40;;;7.10;99.90;;;;;;5053529;28;20414;-60
2023/03/10 06:06:54;;;;;;;5.82;5.22;;;7.00;99.90;;;;;;5053828;28;20044;-61
2023/03/10 06:09:21;;;;;;;6.95;5.00;;;7.00;99.90;;;;;;5053224;28;20098;-59
2023/03/10 06:11:48;;;;;;;6.40;4.95;;;6.90;99.90;;;;;;5052039;28;20064;-60
2023/03/10 06:14:15;;;;;;;6.93;5.35;;;6.80;99.90;;;;;;5053122;28;20045;-63
2023/03/10 06:16:43;;;;;;;6.03;5.13;;;6.70;99.90;;;;;;5053331;28;20037;-61
2023/03/10 06:19:10;;;;;;;7.90;5.35;;;6.70;99.90;;;;;;5053234;28;20120;-61
2023/03/10 06:21:37;;;;;;;7.93;5.40;;;6.70;99.90;;;;;;5052953;28;20095;-61
2023/03/10 06:24:04;;;;;;;5.35;4.60;;;6.70;99.90;;;;;;5053483;28;20045;-62
2023/03/10 06:26:30;;;;;;;6.07;5.07;;;6.50;99.90;;;;;;5053298;28;20460;-61
2023/03/10 06:28:57;;;;;;;7.40;5.18;;;6.50;99.90;;;;;;5053251;28;20037;-61
2023/03/10 06:31:24;;;;;;;4.63;4.15;;;6.40;99.90;;;;;;5053708;28;20120;-61
2023/03/10 06:33:51;;;;;;;5.00;4.47;;;6.30;99.90;;;;;;5053160;28;20044;-61
2023/03/10 06:36:18;;;;;;;4.05;3.55;;;6.30;99.90;;;;;;5052964;28;20124;-61
2023/03/10 06:38:45;;;;;;;5.18;4.38;;;6.20;99.90;;;;;;5053100;28;20358;-61
2023/03/10 06:41:12;;;;;;;4.00;3.58;;;6.30;99.90;;;;;;5053257;28;20106;-61
2023/03/10 06:43:38;;;;;;;4.60;3.40;;;6.20;99.90;;;;;;5053253;28;20037;-61
2023/03/10 06:46:05;;;;;;;3.72;3.42;;;6.10;99.90;;;;;;5052877;28;20115;-59
2023/03/10 06:48:32;;;;;;;4.07;3.67;;;6.10;99.90;;;;;;5056669;28;20103;-61
2023/03/10 06:50:59;;;;;;;4.97;3.60;;;6.10;99.90;;;;;;5057389;28;20349;-61
2023/03/10 06:53:26;;;;;;;5.57;3.33;;;6.10;99.90;;;;;;5055602;28;20110;-61
2023/03/10 06:55:52;;;;;;;4.68;3.13;;;6.00;99.90;;;;;;5056852;28;20044;-62
2023/03/10 06:58:19;;;;;;;3.55;2.90;;;6.00;99.90;;;;;;5057004;28;20115;-61
2023/03/10 07:00:46;;;;;;;3.30;2.60;;;6.00;99.90;;;;;;5057223;28;20410;-61
2023/03/10 07:03:13;;;;;;;3.53;2.75;;;6.00;99.90;;;;;;5057024;28;20084;-60
2023/03/10 07:05:39;;;;;;;2.83;2.53;;;6.00;99.90;;;;;;5057237;28;20040;-61
2023/03/10 07:08:06;;;;;;;3.17;2.53;;;5.90;99.90;;;;;;5057109;28;20045;-61
2023/03/10 07:10:33;;;;;;;3.70;2.30;;;5.90;99.90;;;;;;5056799;28;20475;-61
2023/03/10 07:13:01;;;;;;;2.25;1.75;;;5.90;99.90;;;;;;5056627;28;20492;-61
2023/03/10 07:15:28;;;;;;;3.35;1.88;;;5.80;99.90;;;;;;5056749;28;20045;-61
2023/03/10 07:17:55;;;;;;;2.78;2.10;;;5.80;99.90;;;;;;5056758;28;20045;-61
2023/03/10 07:20:22;;;;;;;2.88;1.77;;;5.80;99.90;;;;;;5056536;28;20357;-61
2023/03/10 07:22:49;;;;;;;3.17;1.70;;;5.80;99.90;;;;;;5056804;28;20041;-61
2023/03/10 07:25:15;;;;;;;2.50;1.40;;;5.70;99.90;;;;;;5055257;28;20103;-61
2023/03/10 07:27:42;;;;;;;2.13;1.58;;;5.70;99.90;;;;;;5057026;28;20041;-61
2023/03/10 07:30:09;;;;;;;2.67;1.50;;;5.60;99.90;;;;;;5056926;28;20049;-61
2023/03/10 07:32:36;;;;;;;1.77;1.27;;;5.60;99.90;;;;;;5056137;28;20048;-61
2023/03/10 07:35:03;;;;;;;2.47;1.48;;;5.50;99.90;;;;;;5056451;28;20434;-61
2023/03/10 07:37:29;;;;;;;1.98;1.30;;;5.50;99.90;;;;;;5056380;28;20043;-61
2023/03/10 07:39:56;;;;;;;1.70;1.30;;;5.50;99.90;;;;;;5054970;28;20496;-61
2023/03/10 07:42:23;;;;;;;2.58;1.60;;;5.50;99.90;;;;;;5056008;28;20479;-61
2023/03/10 07:44:51;;;;;;;2.05;1.45;;;5.40;99.90;;;;;;5055178;28;20500;-62
2023/03/10 07:47:18;;;;;;;2.20;1.40;;;5.40;99.90;;;;;;5056453;28;20128;-61
2023/03/10 07:49:45;;;;;;;2.67;1.67;;;5.50;99.90;;;;;;5056291;28;20510;-61
2023/03/10 07:52:12;;;;;;;2.38;1.42;;;5.50;99.90;;;;;;5055805;28;20439;-61
2023/03/10 07:54:39;;;;;;;2.45;1.60;;;5.50;99.90;;;;;;5056030;28;20064;-62
2023/03/10 07:57:06;;;;;;;3.05;1.80;;;5.40;99.90;;;;;;5056530;28;20037;-60
2023/03/10 07:59:33;;;;;;;4.05;2.13;;;5.40;99.90;;;;;;5055747;28;20123;-61
2023/03/10 08:02:00;;;;;;;3.38;1.60;;;5.40;99.90;;;;;;5055713;28;20045;-60
2023/03/10 08:04:27;;;;;;;2.00;1.40;;;5.20;99.90;;;;;;5055397;28;20075;-58
2023/03/10 08:06:54;;;;;;;5.15;1.20;;;5.20;99.90;;;;;;5054316;28;20065;-60
2023/03/10 08:09:20;;;;;;;1.35;0.80;;;5.10;99.90;;;;;;5054532;28;20049;-61
2023/03/10 08:11:47;;;;;;;1.70;0.90;;;5.00;99.90;;;;;;5048420;28;20030;-61
2023/03/10 08:14:17;;;;;;;1.30;0.82;;;5.00;99.90;;;;;;5035034;28;20045;-61
2023/03/10 08:16:46;;;;;;;1.83;0.88;;;5.00;99.90;;;;;;5035693;28;20046;-61
2023/03/10 08:19:13;;;;;;;3.10;1.40;;;4.90;99.90;;;;;;5035231;28;20497;-61
2023/03/10 08:21:40;;;;;;;2.03;1.20;;;4.90;99.90;;;;;;5033234;28;20096;-63
2023/03/10 08:24:07;;;;;;;1.88;1.05;;;4.90;99.90;;;;;;5031219;28;20660;-61
2023/03/10 08:26:33;;;;;;;1.70;0.98;;;4.70;99.90;;;;;;5033392;28;20049;-60
2023/03/10 08:29:01;;;;;;;1.88;1.08;;;4.50;99.90;;;;;;5034667;28;20049;-61
2023/03/10 08:31:27;;;;;;;3.17;1.35;;;4.50;99.90;;;;;;5034964;28;20076;-61
2023/03/10 08:33:55;;;;;;;3.08;1.38;;;4.40;99.90;;;;;;5033854;28;20046;-59
2023/03/10 08:36:22;;;;;;;1.83;1.20;;;4.30;99.90;;;;;;5034805;28;20042;-61
2023/03/10 08:38:49;;;;;;;1.30;0.70;;;4.20;99.90;;;;;;5034198;28;20045;-61
2023/03/10 08:41:15;;;;;;;1.73;0.93;;;4.10;99.90;;;;;;5033867;28;20092;-60
2023/03/10 08:43:42;;;;;;;1.90;0.82;;;4.00;99.90;;;;;;5034054;28;20041;-60
2023/03/10 08:46:09;;;;;;;2.47;0.90;;;3.90;99.90;;;;;;5034285;28;20103;-61
2023/03/10 08:48:36;;;;;;;1.92;1.40;;;3.80;99.90;;;;;;5034449;28;20052;-60
2023/03/10 08:51:02;;;;;;;2.08;0.98;;;3.70;99.90;;;;;;5034470;28;20092;-60
2023/03/10 08:53:29;;;;;;;1.80;1.13;;;3.70;99.90;;;;;;5034055;28;20052;-60
2023/03/10 08:55:56;;;;;;;1.90;1.25;;;3.60;99.90;;;;;;5033985;28;20048;-60
2023/03/10 08:58:23;;;;;;;2.00;1.40;;;3.50;99.90;;;;;;5034084;28;20113;-59
2023/03/10 09:00:50;;;;;;;5.50;1.85;;;3.40;99.90;;;;;;5034538;28;20443;-58
2023/03/10 09:03:17;;;;;;;3.13;1.50;;;3.40;99.90;;;;;;5033803;28;20045;-60
2023/03/10 09:05:44;;;;;;;3.30;1.77;;;3.30;99.90;;;;;;5034122;28;20057;-58
2023/03/10 09:08:10;;;;;;;3.90;1.80;;;3.30;99.90;;;;;;5032868;28;20512;-58
2023/03/10 09:10:37;;;;;;;2.20;1.25;;;3.20;99.90;;;;;;5033990;28;20048;-59
2023/03/10 09:13:04;;;;;;;3.10;1.40;;;3.20;99.90;;;;;;5033793;28;20041;-60
2023/03/10 09:15:40;;;;;;;3.13;1.20;;;3.20;99.90;;;;;;5034259;28;20496;-59
2023/03/10 09:18:07;;;;;;;2.97;1.10;;;3.10;99.90;;;;;;5032716;28;20053;-60
2023/03/10 09:20:34;;;;;;;1.65;0.90;;;3.00;99.90;;;;;;5033922;28;20124;-59
2023/03/10 09:23:01;;;;;;;2.30;1.20;;;2.90;99.90;;;;;;5033760;28;20052;-61
2023/03/10 09:25:28;;;;;;;2.47;1.10;;;2.90;99.90;;;;;;5032605;28;20444;-62
2023/03/10 09:27:55;;;;;;;1.73;0.82;;;2.80;99.90;;;;;;5034231;28;20465;-62
2023/03/10 09:30:22;;;;;;;1.80;0.75;;;2.80;99.90;;;;;;5034090;28;20459;-62
2023/03/10 09:32:49;;;;;;;3.00;0.70;;;2.80;99.90;;;;;;5033943;28;20426;-62
2023/03/10 09:35:16;;;;;;;1.80;0.75;;;2.80;99.90;;;;;;5032277;28;20038;-62
2023/03/10 09:37:43;;;;;;;1.63;0.65;;;2.80;99.90;;;;;;5034782;28;20038;-63
2023/03/10 09:40:11;;;;;;;2.22;1.05;;;2.80;99.90;;;;;;5033631;28;20041;-63
2023/03/10 09:42:37;;;;;;;2.60;0.57;;;2.70;99.90;;;;;;5033891;28;20041;-62
2023/03/10 09:45:05;;;;;;;1.73;0.70;;;2.70;99.90;;;;;;5032184;28;20381;-63
2023/03/10 09:47:32;;;;;;;2.75;0.70;;;2.70;99.90;;;;;;5033692;28;20599;-62
2023/03/10 09:49:59;;;;;;;1.40;0.50;;;2.70;99.90;;;;;;5033359;28;20065;-65
2023/03/10 09:52:26;;;;;;;1.98;0.70;;;2.70;99.90;;;;;;5033416;28;20041;-63
2023/03/10 09:54:53;;;;;;;2.35;0.70;;;2.70;99.90;;;;;;5033238;28;20400;-62
2023/03/10 09:57:21;;;;;;;1.40;0.70;;;2.70;99.90;;;;;;5033501;28;20406;-61
2023/03/10 09:59:48;;;;;;;0.98;0.50;;;2.70;99.90;;;;;;5033350;28;20436;-61
2023/03/10 10:02:15;;;;;;;2.15;0.70;;;2.70;99.90;;;;;;5032183;28;20045;-61
2023/03/10 10:04:42;;;;;;;1.00;0.50;;;2.80;99.90;;;;;;5031499;28;20049;-61
2023/03/10 10:07:09;;;;;;;1.40;0.70;;;2.80;99.90;;;;;;5033251;28;20041;-61
2023/03/10 10:09:41;;;;;;;1.30;0.60;;;2.80;99.90;;;;;;5033843;28;20404;-61
2023/03/10 10:12:08;;;;;;;3.28;0.75;;;2.80;99.90;;;;;;5032323;28;20104;-62
2023/03/10 10:14:34;;;;;;;1.90;0.43;;;2.80;99.90;;;;;;5032787;28;20048;-61
2023/03/10 10:17:08;;;;;;;1.80;0.70;;;2.80;99.90;;;;;;5033040;28;20037;-61
2023/03/10 10:19:35;;;;;;;0.85;0.40;;;2.80;99.90;;;;;;5032962;28;20492;-61
2023/03/10 10:22:03;;;;;;;1.40;0.50;;;2.80;99.90;;;;;;5032852;28;20452;-61
2023/03/10 10:24:30;;;;;;;3.40;0.80;;;2.80;99.90;;;;;;5032673;28;20493;-61
2023/03/10 10:26:57;;;;;;;1.92;0.40;;;2.80;99.90;;;;;;5032777;28;20053;-61
2023/03/10 10:29:24;;;;;;;0.85;0.40;;;2.80;99.90;;;;;;5032945;28;20054;-61
2023/03/10 10:31:51;;;;;;;0.63;0.35;;;2.90;99.90;;;;;;5032908;28;20390;-61
2023/03/10 10:34:17;;;;;;;2.17;0.60;;;2.90;99.90;;;;;;5031883;28;20037;-61
2023/03/10 10:36:45;;;;;;;0.77;0.40;;;2.90;99.90;;;;;;5032954;28;20037;-62
2023/03/10 10:39:12;;;;;;;2.05;0.50;;;2.90;99.90;;;;;;5032488;28;20045;-61
2023/03/10 10:41:39;;;;;;;1.75;0.60;;;2.90;99.90;;;;;;5032531;28;20045;-61
2023/03/10 10:44:05;;;;;;;1.58;0.50;;;3.00;99.90;;;;;;5032446;28;20041;-62
2023/03/10 10:46:32;;;;;;;2.72;0.50;;;3.10;99.90;;;;;;5032474;28;20122;-61
2023/03/10 10:48:59;;;;;;;1.30;0.50;;;3.20;99.90;;;;;;5032687;28;20045;-61
2023/03/10 10:51:27;;;;;;;1.08;0.50;;;3.20;99.90;;;;;;5032428;28;20038;-61
2023/03/10 10:53:54;;;;;;;2.45;0.50;;;3.30;99.90;;;;;;5032361;28;20077;-61
2023/03/10 10:56:23;;;;;;;0.93;0.50;;;3.30;99.90;;;;;;5032684;28;20042;-61
2023/03/10 10:58:49;;;;;;;1.20;0.52;;;3.40;99.90;;;;;;5032420;28;20053;-61
2023/03/10 11:01:16;;;;;;;0.93;0.38;;;3.50;99.90;;;;;;5032365;28;20057;-61
2023/03/10 11:03:43;;;;;;;0.90;0.50;;;3.60;99.90;;;;;;5032130;28;20111;-61
2023/03/10 11:06:10;;;;;;;0.82;0.50;;;3.70;99.90;;;;;;5032286;28;20046;-62
2023/03/10 11:08:39;;;;;;;1.38;0.60;;;3.80;99.90;;;;;;5032364;28;20045;-60
2023/03/10 11:11:06;;;;;;;2.10;0.50;;;3.80;99.90;;;;;;5032322;28;20503;-61
2023/03/10 11:13:34;;;;;;;1.52;0.60;;;3.80;99.90;;;;;;5030508;28;20120;-61
2023/03/10 11:16:00;;;;;;;2.15;0.88;;;3.80;99.90;;;;;;5032300;28;20037;-62
2023/03/10 11:18:28;;;;;;;2.03;0.68;;;3.80;99.90;;;;;;5032153;28;20073;-62
2023/03/10 11:20:55;;;;;;;2.95;1.10;;;3.90;99.90;;;;;;5032442;28;20428;-62
2023/03/10 11:23:22;;;;;;;2.25;1.10;;;4.00;99.90;;;;;;5031676;28;20116;-62
2023/03/10 11:25:49;;;;;;;2.85;1.15;;;3.90;99.90;;;;;;5031851;28;20547;-61
2023/03/10 11:28:15;;;;;;;2.60;1.10;;;3.90;99.90;;;;;;5030886;28;20049;-61
2023/03/10 11:30:42;;;;;;;1.65;0.68;;;3.90;99.90;;;;;;5032256;28;20042;-62
2023/03/10 11:33:09;;;;;;;1.85;0.75;;;3.80;99.90;;;;;;5032217;28;20065;-61
2023/03/10 11:35:36;;;;;;;2.72;1.30;;;3.80;99.90;;;;;;5033934;28;20392;-61
2023/03/10 11:38:03;;;;;;;1.88;0.82;;;3.80;99.90;;;;;;5034505;28;20042;-60
2023/03/10 11:40:29;;;;;;;2.10;0.93;;;3.80;99.90;;;;;;5035703;28;20038;-61
2023/03/10 11:42:56;;;;;;;3.67;1.77;;;3.80;99.90;;;;;;5035639;28;20442;-60
2023/03/10 11:45:23;;;;;;;2.00;1.00;;;3.80;99.90;;;;;;5035607;28;20045;-61
2023/03/10 11:47:50;;;;;;;1.88;0.60;;;3.80;99.90;;;;;;5035489;28;20045;-62
2023/03/10 11:50:17;;;;;;;3.17;1.25;;;3.80;99.90;;;;;;5035750;28;20053;-61
2023/03/10 11:52:44;;;;;;;1.90;0.63;;;3.90;99.90;;;;;;5035624;28;20092;-61
2023/03/10 11:55:11;;;;;;;1.80;0.70;;;3.80;99.90;;;;;;5035252;28;20053;-61
2023/03/10 11:57:37;;;;;;;1.75;0.70;;;3.80;99.90;;;;;;5035536;28;20034;-61
2023/03/10 12:00:04;;;;;;;2.92;0.77;;;3.90;99.90;;;;;;5035471;28;20424;-61
2023/03/10 12:02:32;;;;;;;3.10;0.60;;;3.90;99.90;;;;;;5035599;28;20111;-62
2023/03/10 12:04:59;;;;;;;2.45;1.02;;;3.90;99.90;;;;;;5035181;28;20100;-61
2023/03/10 12:07:26;;;;;;;2.30;1.00;;;3.90;99.90;;;;;;5035188;28;20044;-62
2023/03/10 12:09:56;;;;;;;2.75;1.20;;;4.00;99.90;;;;;;5035303;28;20107;-61
2023/03/10 12:12:23;;;;;;;3.63;1.20;;;4.00;99.90;;;;;;5035253;28;20045;-61
2023/03/10 12:14:51;;;;;;;3.35;1.60;;;3.90;99.90;;;;;;5033907;28;20428;-62
2023/03/10 12:17:18;;;;;;;4.25;1.50;;;4.00;99.90;;;;;;5034936;28;20033;-61
2023/03/10 12:19:45;;;;;;;2.67;1.60;;;4.00;99.90;;;;;;5035054;28;20083;-61
2023/03/10 12:22:12;;;;;;;3.03;1.88;;;3.90;99.90;;;;;;5034885;28;20037;-62
2023/03/10 12:24:38;;;;;;;4.47;1.80;;;3.80;99.90;;;;;;5034840;28;20041;-62
2023/03/10 12:27:05;;;;;;;3.65;1.75;;;3.80;99.90;;;;;;5034929;28;20435;-61
2023/03/10 12:29:32;;;;;;;2.45;1.58;;;3.80;99.90;;;;;;5035183;28;20054;-62
2023/03/10 12:31:59;;;;;;;2.20;1.60;;;3.90;99.90;;;;;;5035173;28;20049;-61
2023/03/10 12:34:27;;;;;;;3.03;1.40;;;3.90;99.90;;;;;;5034486;28;20042;-61
2023/03/10 12:36:54;;;;;;;2.55;1.38;;;4.00;99.90;;;;;;5034997;28;20090;-61
2023/03/10 12:39:21;;;;;;;2.38;1.30;;;4.10;99.90;;;;;;5031740;28;20081;-60
2023/03/10 12:41:48;;;;;;;3.22;1.40;;;4.20;99.90;;;;;;5034561;28;20046;-61
2023/03/10 12:44:14;;;;;;;1.70;0.93;;;4.30;99.90;;;;;;5034173;28;20056;-62
2023/03/10 12:46:41;;;;;;;3.20;0.90;;;4.50;99.90;;;;;;5034297;28;20053;-62
2023/03/10 12:49:08;;;;;;;3.25;1.15;;;4.50;99.90;;;;;;5028042;28;20046;-61
2023/03/10 12:51:38;;;;;;;2.47;0.70;;;4.50;99.90;;;;;;5028498;28;20124;-61
2023/03/10 12:54:05;;;;;;;2.55;0.90;;;4.60;99.90;;;;;;5034090;28;20084;-62